Terminal Aerodrome Forecast
Issued by NWS

Home | Current Version | Previous Version | Text Only | Print | Product List | Glossary On
Versions: 1 2 3 4 5 6 7 8 9 10 11 12 13
000
FTUS46 KHNX 212320
TAFBFL
TAF
KBFL 212320Z 2200/2224 VRB04KT P6SM BKN040
     FM220300 VRB03KT 4SM BR BKN020
     FM220600 VRB03KT 2SM BR BKN007
     FM220800 VRB03KT 1SM BR OVC005
     FM221800 VRB03KT 2SM BR SCT005 BKN015=

USA.gov is the U.S. government's official web portal to all federal, state and local government web resources and services.